»·PEaware :: PH-TIM KSMO-KBUR

PH-TIM :: KSMO-KBUR

FLIGHT INFORMATION

Flight Status: Arrived
Operator: Privately registered:
Netherlands
More flights under this callsign
Pilot: Tim P. (6337)
Aircraft: CESSNA 172 SKYHAWK
(C172)
More flights by this aircraft type
Origin: KSMO Santa Monica Mun
United States
Destination: KBUR Bob Hope-Burbank
United States
More flights between these airports :: More routes between these airports
Route: +
File this flight plan on PilotEdge
Remarks: VOR 8
Altitude:
(Current/Filed)
0ft
Speed:
(Current/Filed)
0kts
Departed: 31-Mar-18 09:51 AM
Arrived: 31-Mar-18 10:32 AM
Distance/Time
Traveled:
12nm/0:41
Distance/Time
To Go:
Arrived

Flight Plot

Page will automatically refresh every two minutes.


Map Options




Map Legend


Flown Route
Filed Route
Departure Airport
Arrival Airport
Navaid (VOR, NDB)
Fix

Horizontal Profiles

Position Reports

Time Latitude Longitude Heading Altitude Ground
Speed
31-Mar-18 09:44 34.018424 -118.446806 315 158ft 0kts
31-Mar-18 09:45 34.018424 -118.446806 315 158ft 0kts
31-Mar-18 09:46 34.018424 -118.446806 315 158ft 0kts
31-Mar-18 09:47 34.019825 -118.445405 43 158ft 9kts
31-Mar-18 09:48 34.019929 -118.445424 263 159ft 0kts
31-Mar-18 09:49 34.019929 -118.445424 263 159ft 0kts
31-Mar-18 09:50 34.018649 -118.447966 227 160ft 66kts
31-Mar-18 09:51 34.002587 -118.469307 237 1261ft 75kts
31-Mar-18 09:52 34.004463 -118.493134 297 2190ft 76kts
31-Mar-18 09:53 34.013417 -118.516232 288 3070ft 77kts
31-Mar-18 09:54 34.020823 -118.535931 293 3714ft 78kts
31-Mar-18 09:55 34.030729 -118.559374 281 4468ft 78kts
31-Mar-18 09:56 34.033522 -118.591121 271 4627ft 98kts
31-Mar-18 09:57 34.031791 -118.623446 257 4701ft 97kts
31-Mar-18 09:58 34.027676 -118.652588 278 4735ft 99kts
31-Mar-18 09:59 34.038597 -118.685506 289 4523ft 108kts
31-Mar-18 10:00 34.047525 -118.718576 284 4549ft 102kts
31-Mar-18 10:01 34.053189 -118.752431 280 4536ft 103kts
31-Mar-18 10:02 34.058711 -118.786433 283 4521ft 103kts
31-Mar-18 10:03 34.065244 -118.820384 283 4513ft 104kts
31-Mar-18 10:04 34.071373 -118.854604 285 4502ft 104kts
31-Mar-18 10:05 34.078575 -118.888456 286 4493ft 104kts
31-Mar-18 10:06 34.087300 -118.921981 288 4485ft 104kts
31-Mar-18 10:07 34.096191 -118.955209 287 4514ft 101kts
31-Mar-18 10:08 34.102126 -118.988359 279 4713ft 103kts
31-Mar-18 10:09 34.108224 -119.022982 291 4761ft 108kts
31-Mar-18 10:10 34.122134 -119.054343 342 4779ft 107kts
31-Mar-18 10:11 34.137263 -119.028052 80 4838ft 109kts
31-Mar-18 10:12 34.135595 -118.991252 99 4861ft 115kts
31-Mar-18 10:13 34.146227 -118.954459 62 4725ft 115kts
31-Mar-18 10:14 34.158534 -118.918880 68 4738ft 116kts
31-Mar-18 10:15 34.170030 -118.882548 68 4749ft 115kts
31-Mar-18 10:16 34.181229 -118.846033 69 4751ft 116kts
31-Mar-18 10:17 34.192050 -118.810062 69 4754ft 116kts
31-Mar-18 10:18 34.203438 -118.773393 68 4760ft 116kts
31-Mar-18 10:19 34.214962 -118.736754 70 4633ft 118kts
31-Mar-18 10:20 34.219600 -118.698720 97 4261ft 115kts
31-Mar-18 10:21 34.216338 -118.660368 99 3780ft 116kts
31-Mar-18 10:22 34.216709 -118.623528 80 3736ft 107kts
31-Mar-18 10:23 34.221379 -118.592878 77 3785ft 103kts
31-Mar-18 10:24 34.221981 -118.559009 89 3330ft 102kts
31-Mar-18 10:25 34.223001 -118.525139 89 3168ft 100kts
31-Mar-18 10:26 34.221126 -118.491669 99 3111ft 98kts
31-Mar-18 10:27 34.212503 -118.462462 106 2390ft 92kts
31-Mar-18 10:28 34.206138 -118.435354 103 2067ft 82kts
31-Mar-18 10:29 34.200803 -118.408207 101 1704ft 76kts
31-Mar-18 10:30 34.198126 -118.384805 89 1196ft 62kts
31-Mar-18 10:31 34.197858 -118.365068 91 780ft 40kts
31-Mar-18 10:32 34.198563 -118.360250 359 780ft 0kts
31-Mar-18 10:33 34.199462 -118.360202 27 780ft 11kts
31-Mar-18 10:34 34.200340 -118.359501 348 780ft 0kts
31-Mar-18 10:35 34.200340 -118.359501 348 780ft 0kts
31-Mar-18 10:36 34.200340 -118.359501 348 780ft 0kts

Navigation Log

Ident Type
Flight plan parsing failed, navigation log unavailable